sensor_id;sensor_type;location;lat;lon;timestamp;P1;durP1;ratioP1;P2;durP2;ratioP2
45049;SDS011;61798;48.048;-1.928;2023-12-20T00:00:17;5.47;;;1.73;;
45049;SDS011;61798;48.048;-1.928;2023-12-20T00:02:24;2.20;;;1.58;;
45049;SDS011;61798;48.048;-1.928;2023-12-20T00:04:31;3.85;;;1.33;;
45049;SDS011;61798;48.048;-1.928;2023-12-20T00:06:40;7.82;;;1.58;;
45049;SDS011;61798;48.048;-1.928;2023-12-20T00:08:46;5.88;;;1.90;;
45049;SDS011;61798;48.048;-1.928;2023-12-20T00:10:54;10.38;;;4.13;;
45049;SDS011;61798;48.048;-1.928;2023-12-20T00:13:00;9.60;;;3.72;;
45049;SDS011;61798;48.048;-1.928;2023-12-20T00:15:08;4.45;;;2.63;;
45049;SDS011;61798;48.048;-1.928;2023-12-20T00:17:14;11.25;;;2.85;;
45049;SDS011;61798;48.048;-1.928;2023-12-20T00:19:21;13.38;;;3.63;;
45049;SDS011;61798;48.048;-1.928;2023-12-20T00:21:28;8.80;;;3.67;;
45049;SDS011;61798;48.048;-1.928;2023-12-20T00:23:35;10.10;;;3.08;;
45049;SDS011;61798;48.048;-1.928;2023-12-20T00:25:43;10.27;;;3.45;;
45049;SDS011;61798;48.048;-1.928;2023-12-20T00:27:50;7.05;;;2.83;;
45049;SDS011;61798;48.048;-1.928;2023-12-20T00:29:58;7.30;;;3.08;;
45049;SDS011;61798;48.048;-1.928;2023-12-20T00:32:05;5.28;;;3.08;;
45049;SDS011;61798;48.048;-1.928;2023-12-20T00:34:13;8.75;;;2.63;;
45049;SDS011;61798;48.048;-1.928;2023-12-20T00:36:21;9.02;;;2.55;;
45049;SDS011;61798;48.048;-1.928;2023-12-20T00:38:28;4.45;;;2.00;;
45049;SDS011;61798;48.048;-1.928;2023-12-20T00:40:35;6.55;;;1.73;;
45049;SDS011;61798;48.048;-1.928;2023-12-20T00:42:44;8.88;;;2.78;;
45049;SDS011;61798;48.048;-1.928;2023-12-20T00:44:53;7.68;;;2.00;;
45049;SDS011;61798;48.048;-1.928;2023-12-20T00:47:02;3.28;;;1.50;;
45049;SDS011;61798;48.048;-1.928;2023-12-20T00:49:10;5.63;;;2.10;;
45049;SDS011;61798;48.048;-1.928;2023-12-20T00:51:17;9.90;;;2.30;;
45049;SDS011;61798;48.048;-1.928;2023-12-20T00:53:24;9.50;;;2.50;;
45049;SDS011;61798;48.048;-1.928;2023-12-20T00:55:31;11.38;;;1.95;;
45049;SDS011;61798;48.048;-1.928;2023-12-20T00:57:38;3.50;;;1.52;;
45049;SDS011;61798;48.048;-1.928;2023-12-20T00:59:45;4.38;;;2.08;;
45049;SDS011;61798;48.048;-1.928;2023-12-20T01:01:51;12.57;;;2.35;;
45049;SDS011;61798;48.048;-1.928;2023-12-20T01:03:58;9.00;;;3.03;;
45049;SDS011;61798;48.048;-1.928;2023-12-20T01:06:04;7.88;;;2.75;;
45049;SDS011;61798;48.048;-1.928;2023-12-20T01:08:12;11.68;;;3.50;;
45049;SDS011;61798;48.048;-1.928;2023-12-20T01:10:19;15.82;;;5.15;;
45049;SDS011;61798;48.048;-1.928;2023-12-20T01:12:26;8.27;;;2.42;;
45049;SDS011;61798;48.048;-1.928;2023-12-20T01:14:33;6.20;;;2.22;;
45049;SDS011;61798;48.048;-1.928;2023-12-20T01:16:40;4.40;;;2.05;;
45049;SDS011;61798;48.048;-1.928;2023-12-20T01:18:48;4.53;;;1.88;;
45049;SDS011;61798;48.048;-1.928;2023-12-20T01:21:00;4.40;;;1.08;;
45049;SDS011;61798;48.048;-1.928;2023-12-20T01:23:09;6.63;;;2.15;;
45049;SDS011;61798;48.048;-1.928;2023-12-20T01:25:16;5.38;;;3.38;;
45049;SDS011;61798;48.048;-1.928;2023-12-20T01:27:23;9.43;;;2.08;;
45049;SDS011;61798;48.048;-1.928;2023-12-20T01:29:30;6.20;;;1.98;;
45049;SDS011;61798;48.048;-1.928;2023-12-20T01:31:36;5.40;;;1.63;;
45049;SDS011;61798;48.048;-1.928;2023-12-20T01:33:43;6.78;;;1.30;;
45049;SDS011;61798;48.048;-1.928;2023-12-20T01:35:52;6.35;;;1.40;;
45049;SDS011;61798;48.048;-1.928;2023-12-20T01:37:59;6.35;;;1.00;;
45049;SDS011;61798;48.048;-1.928;2023-12-20T01:40:06;3.40;;;1.20;;
45049;SDS011;61798;48.048;-1.928;2023-12-20T01:42:14;6.03;;;1.10;;
45049;SDS011;61798;48.048;-1.928;2023-12-20T01:44:21;7.90;;;1.10;;
45049;SDS011;61798;48.048;-1.928;2023-12-20T01:46:28;5.45;;;2.22;;
45049;SDS011;61798;48.048;-1.928;2023-12-20T01:48:36;4.63;;;0.95;;
45049;SDS011;61798;48.048;-1.928;2023-12-20T01:50:43;3.22;;;1.13;;
45049;SDS011;61798;48.048;-1.928;2023-12-20T01:52:52;7.75;;;1.05;;
45049;SDS011;61798;48.048;-1.928;2023-12-20T01:55:04;5.57;;;0.93;;
45049;SDS011;61798;48.048;-1.928;2023-12-20T01:57:19;5.60;;;1.02;;
45049;SDS011;61798;48.048;-1.928;2023-12-20T01:59:26;4.88;;;1.30;;
45049;SDS011;61798;48.048;-1.928;2023-12-20T02:01:35;2.30;;;1.00;;
45049;SDS011;61798;48.048;-1.928;2023-12-20T02:03:43;1.35;;;0.63;;
45049;SDS011;61798;48.048;-1.928;2023-12-20T02:05:51;2.70;;;1.05;;
45049;SDS011;61798;48.048;-1.928;2023-12-20T02:07:58;3.88;;;0.98;;
45049;SDS011;61798;48.048;-1.928;2023-12-20T02:10:05;8.60;;;1.33;;
45049;SDS011;61798;48.048;-1.928;2023-12-20T02:12:13;2.85;;;0.60;;
45049;SDS011;61798;48.048;-1.928;2023-12-20T02:14:20;2.95;;;0.90;;
45049;SDS011;61798;48.048;-1.928;2023-12-20T02:16:27;4.90;;;1.00;;
45049;SDS011;61798;48.048;-1.928;2023-12-20T02:18:35;4.28;;;1.02;;
45049;SDS011;61798;48.048;-1.928;2023-12-20T02:20:42;2.70;;;0.80;;
45049;SDS011;61798;48.048;-1.928;2023-12-20T02:22:49;4.47;;;1.08;;
45049;SDS011;61798;48.048;-1.928;2023-12-20T02:24:57;6.45;;;1.08;;
45049;SDS011;61798;48.048;-1.928;2023-12-20T02:27:05;3.13;;;0.85;;
45049;SDS011;61798;48.048;-1.928;2023-12-20T02:29:13;5.50;;;1.20;;
45049;SDS011;61798;48.048;-1.928;2023-12-20T02:31:24;4.75;;;1.00;;
45049;SDS011;61798;48.048;-1.928;2023-12-20T02:33:30;4.82;;;1.30;;
45049;SDS011;61798;48.048;-1.928;2023-12-20T02:35:38;2.08;;;0.90;;
45049;SDS011;61798;48.048;-1.928;2023-12-20T02:37:44;6.68;;;1.30;;
45049;SDS011;61798;48.048;-1.928;2023-12-20T02:39:51;5.22;;;0.88;;
45049;SDS011;61798;48.048;-1.928;2023-12-20T02:41:57;2.72;;;0.80;;
45049;SDS011;61798;48.048;-1.928;2023-12-20T02:44:03;3.25;;;0.95;;
45049;SDS011;61798;48.048;-1.928;2023-12-20T02:46:09;7.30;;;0.90;;
45049;SDS011;61798;48.048;-1.928;2023-12-20T02:48:16;4.03;;;1.10;;
45049;SDS011;61798;48.048;-1.928;2023-12-20T02:50:24;2.45;;;1.00;;
45049;SDS011;61798;48.048;-1.928;2023-12-20T02:52:30;5.03;;;1.10;;
45049;SDS011;61798;48.048;-1.928;2023-12-20T02:54:36;3.85;;;0.90;;
45049;SDS011;61798;48.048;-1.928;2023-12-20T02:56:45;5.63;;;1.20;;
45049;SDS011;61798;48.048;-1.928;2023-12-20T02:58:51;3.70;;;1.33;;
45049;SDS011;61798;48.048;-1.928;2023-12-20T03:00:58;8.70;;;0.95;;
45049;SDS011;61798;48.048;-1.928;2023-12-20T03:03:04;4.32;;;1.20;;
45049;SDS011;61798;48.048;-1.928;2023-12-20T03:05:10;4.88;;;1.33;;
45049;SDS011;61798;48.048;-1.928;2023-12-20T03:07:17;8.32;;;1.27;;
45049;SDS011;61798;48.048;-1.928;2023-12-20T03:09:23;3.25;;;1.20;;
45049;SDS011;61798;48.048;-1.928;2023-12-20T03:11:29;2.83;;;1.42;;
45049;SDS011;61798;48.048;-1.928;2023-12-20T03:13:35;5.78;;;1.27;;
45049;SDS011;61798;48.048;-1.928;2023-12-20T03:15:41;9.75;;;0.88;;
45049;SDS011;61798;48.048;-1.928;2023-12-20T03:17:46;1.70;;;0.80;;
45049;SDS011;61798;48.048;-1.928;2023-12-20T03:19:54;3.33;;;0.65;;
45049;SDS011;61798;48.048;-1.928;2023-12-20T03:22:01;2.10;;;1.08;;
45049;SDS011;61798;48.048;-1.928;2023-12-20T03:24:08;9.52;;;1.33;;
45049;SDS011;61798;48.048;-1.928;2023-12-20T03:26:15;2.35;;;1.02;;
45049;SDS011;61798;48.048;-1.928;2023-12-20T03:28:21;4.95;;;0.80;;
45049;SDS011;61798;48.048;-1.928;2023-12-20T03:30:28;4.45;;;0.90;;
45049;SDS011;61798;48.048;-1.928;2023-12-20T03:32:36;6.03;;;0.98;;
45049;SDS011;61798;48.048;-1.928;2023-12-20T03:34:45;3.03;;;0.90;;
45049;SDS011;61798;48.048;-1.928;2023-12-20T03:36:53;5.68;;;1.40;;
45049;SDS011;61798;48.048;-1.928;2023-12-20T03:39:00;2.83;;;0.73;;
45049;SDS011;61798;48.048;-1.928;2023-12-20T03:41:06;7.68;;;1.60;;
45049;SDS011;61798;48.048;-1.928;2023-12-20T03:43:14;8.18;;;1.02;;
45049;SDS011;61798;48.048;-1.928;2023-12-20T03:45:23;7.53;;;1.27;;
45049;SDS011;61798;48.048;-1.928;2023-12-20T03:47:30;5.45;;;1.25;;
45049;SDS011;61798;48.048;-1.928;2023-12-20T03:49:35;1.40;;;0.60;;
45049;SDS011;61798;48.048;-1.928;2023-12-20T03:51:44;4.30;;;0.82;;
45049;SDS011;61798;48.048;-1.928;2023-12-20T03:53:51;3.13;;;0.90;;
45049;SDS011;61798;48.048;-1.928;2023-12-20T03:55:58;1.95;;;1.20;;
45049;SDS011;61798;48.048;-1.928;2023-12-20T03:58:05;4.90;;;1.00;;
45049;SDS011;61798;48.048;-1.928;2023-12-20T04:00:11;5.30;;;1.10;;
45049;SDS011;61798;48.048;-1.928;2023-12-20T04:02:19;3.17;;;1.25;;
45049;SDS011;61798;48.048;-1.928;2023-12-20T04:04:24;6.28;;;1.00;;
45049;SDS011;61798;48.048;-1.928;2023-12-20T04:06:30;2.70;;;0.95;;
45049;SDS011;61798;48.048;-1.928;2023-12-20T04:08:36;4.70;;;0.68;;
45049;SDS011;61798;48.048;-1.928;2023-12-20T04:10:42;4.47;;;1.00;;
45049;SDS011;61798;48.048;-1.928;2023-12-20T04:12:49;6.13;;;0.98;;
45049;SDS011;61798;48.048;-1.928;2023-12-20T04:14:55;3.90;;;1.08;;
45049;SDS011;61798;48.048;-1.928;2023-12-20T04:17:02;2.15;;;0.80;;
45049;SDS011;61798;48.048;-1.928;2023-12-20T04:19:09;4.40;;;1.00;;
45049;SDS011;61798;48.048;-1.928;2023-12-20T04:21:15;4.03;;;1.17;;
45049;SDS011;61798;48.048;-1.928;2023-12-20T04:23:22;5.05;;;1.17;;
45049;SDS011;61798;48.048;-1.928;2023-12-20T04:25:29;5.40;;;1.05;;
45049;SDS011;61798;48.048;-1.928;2023-12-20T04:27:36;3.90;;;1.02;;
45049;SDS011;61798;48.048;-1.928;2023-12-20T04:29:43;3.72;;;0.82;;
45049;SDS011;61798;48.048;-1.928;2023-12-20T04:31:50;2.05;;;0.63;;
45049;SDS011;61798;48.048;-1.928;2023-12-20T04:34:00;3.47;;;0.95;;
45049;SDS011;61798;48.048;-1.928;2023-12-20T04:36:08;2.22;;;0.98;;
45049;SDS011;61798;48.048;-1.928;2023-12-20T04:38:15;2.80;;;0.82;;
45049;SDS011;61798;48.048;-1.928;2023-12-20T04:40:22;4.25;;;0.80;;
45049;SDS011;61798;48.048;-1.928;2023-12-20T04:42:29;3.88;;;0.75;;
45049;SDS011;61798;48.048;-1.928;2023-12-20T04:44:36;5.20;;;0.80;;
45049;SDS011;61798;48.048;-1.928;2023-12-20T04:46:43;6.63;;;1.10;;
45049;SDS011;61798;48.048;-1.928;2023-12-20T04:48:51;3.05;;;0.80;;
45049;SDS011;61798;48.048;-1.928;2023-12-20T04:50:57;4.93;;;1.10;;
45049;SDS011;61798;48.048;-1.928;2023-12-20T04:53:05;6.40;;;1.05;;
45049;SDS011;61798;48.048;-1.928;2023-12-20T04:55:11;4.53;;;1.05;;
45049;SDS011;61798;48.048;-1.928;2023-12-20T04:57:17;3.70;;;1.08;;
45049;SDS011;61798;48.048;-1.928;2023-12-20T04:59:23;5.15;;;1.10;;
45049;SDS011;61798;48.048;-1.928;2023-12-20T05:01:29;4.78;;;0.98;;
45049;SDS011;61798;48.048;-1.928;2023-12-20T05:03:36;3.10;;;1.02;;
45049;SDS011;61798;48.048;-1.928;2023-12-20T05:05:42;4.70;;;0.70;;
45049;SDS011;61798;48.048;-1.928;2023-12-20T05:07:47;1.88;;;0.90;;
45049;SDS011;61798;48.048;-1.928;2023-12-20T05:09:53;3.75;;;0.85;;
45049;SDS011;61798;48.048;-1.928;2023-12-20T05:11:59;5.25;;;0.90;;
45049;SDS011;61798;48.048;-1.928;2023-12-20T05:14:05;1.70;;;0.93;;
45049;SDS011;61798;48.048;-1.928;2023-12-20T05:16:12;8.52;;;1.52;;
45049;SDS011;61798;48.048;-1.928;2023-12-20T05:18:20;4.30;;;0.93;;
45049;SDS011;61798;48.048;-1.928;2023-12-20T05:20:26;4.00;;;0.85;;
45049;SDS011;61798;48.048;-1.928;2023-12-20T05:22:32;7.47;;;1.30;;
45049;SDS011;61798;48.048;-1.928;2023-12-20T05:24:38;1.92;;;0.60;;
45049;SDS011;61798;48.048;-1.928;2023-12-20T05:26:44;3.05;;;0.60;;
45049;SDS011;61798;48.048;-1.928;2023-12-20T05:28:50;2.63;;;0.73;;
45049;SDS011;61798;48.048;-1.928;2023-12-20T05:30:55;5.00;;;1.05;;
45049;SDS011;61798;48.048;-1.928;2023-12-20T05:33:01;3.40;;;0.80;;
45049;SDS011;61798;48.048;-1.928;2023-12-20T05:35:07;2.72;;;0.70;;
45049;SDS011;61798;48.048;-1.928;2023-12-20T05:37:13;3.28;;;0.77;;
45049;SDS011;61798;48.048;-1.928;2023-12-20T05:39:19;3.90;;;1.33;;
45049;SDS011;61798;48.048;-1.928;2023-12-20T05:41:24;6.55;;;0.90;;
45049;SDS011;61798;48.048;-1.928;2023-12-20T05:43:30;9.18;;;1.05;;
45049;SDS011;61798;48.048;-1.928;2023-12-20T05:45:36;5.20;;;0.95;;
45049;SDS011;61798;48.048;-1.928;2023-12-20T05:47:42;2.88;;;0.85;;
45049;SDS011;61798;48.048;-1.928;2023-12-20T05:49:48;6.38;;;0.65;;
45049;SDS011;61798;48.048;-1.928;2023-12-20T05:51:56;5.43;;;0.80;;
45049;SDS011;61798;48.048;-1.928;2023-12-20T05:54:04;3.33;;;0.70;;
45049;SDS011;61798;48.048;-1.928;2023-12-20T05:56:10;10.90;;;1.50;;
45049;SDS011;61798;48.048;-1.928;2023-12-20T05:58:16;3.42;;;1.25;;
45049;SDS011;61798;48.048;-1.928;2023-12-20T06:00:23;4.55;;;1.13;;
45049;SDS011;61798;48.048;-1.928;2023-12-20T06:02:31;2.70;;;0.75;;
45049;SDS011;61798;48.048;-1.928;2023-12-20T06:04:41;2.72;;;0.68;;
45049;SDS011;61798;48.048;-1.928;2023-12-20T06:06:50;5.35;;;0.70;;
45049;SDS011;61798;48.048;-1.928;2023-12-20T06:08:57;6.45;;;0.93;;
45049;SDS011;61798;48.048;-1.928;2023-12-20T06:11:04;1.63;;;0.68;;
45049;SDS011;61798;48.048;-1.928;2023-12-20T06:13:14;2.83;;;0.90;;
45049;SDS011;61798;48.048;-1.928;2023-12-20T06:15:21;12.93;;;0.90;;
45049;SDS011;61798;48.048;-1.928;2023-12-20T06:17:28;6.53;;;1.00;;
45049;SDS011;61798;48.048;-1.928;2023-12-20T06:19:37;8.73;;;1.10;;
45049;SDS011;61798;48.048;-1.928;2023-12-20T06:21:43;3.10;;;0.82;;
45049;SDS011;61798;48.048;-1.928;2023-12-20T06:23:49;12.38;;;1.23;;
45049;SDS011;61798;48.048;-1.928;2023-12-20T06:25:57;6.07;;;1.10;;
45049;SDS011;61798;48.048;-1.928;2023-12-20T06:28:04;4.10;;;1.00;;
45049;SDS011;61798;48.048;-1.928;2023-12-20T06:30:12;5.13;;;1.10;;
45049;SDS011;61798;48.048;-1.928;2023-12-20T06:32:19;8.75;;;1.00;;
45049;SDS011;61798;48.048;-1.928;2023-12-20T06:34:26;6.88;;;1.00;;
45049;SDS011;61798;48.048;-1.928;2023-12-20T06:36:33;0.70;;;0.55;;
45049;SDS011;61798;48.048;-1.928;2023-12-20T06:38:40;3.88;;;0.90;;
45049;SDS011;61798;48.048;-1.928;2023-12-20T06:40:48;1.55;;;0.52;;
45049;SDS011;61798;48.048;-1.928;2023-12-20T06:42:54;6.03;;;1.08;;
45049;SDS011;61798;48.048;-1.928;2023-12-20T06:45:01;4.28;;;0.88;;
45049;SDS011;61798;48.048;-1.928;2023-12-20T06:47:09;5.32;;;0.95;;
45049;SDS011;61798;48.048;-1.928;2023-12-20T06:49:15;2.58;;;1.00;;
45049;SDS011;61798;48.048;-1.928;2023-12-20T06:51:22;3.70;;;0.93;;
45049;SDS011;61798;48.048;-1.928;2023-12-20T06:53:31;8.55;;;1.35;;
45049;SDS011;61798;48.048;-1.928;2023-12-20T06:55:38;7.05;;;0.75;;
45049;SDS011;61798;48.048;-1.928;2023-12-20T06:57:45;6.93;;;1.35;;
45049;SDS011;61798;48.048;-1.928;2023-12-20T06:59:52;1.48;;;0.70;;
45049;SDS011;61798;48.048;-1.928;2023-12-20T07:01:59;2.78;;;0.80;;
45049;SDS011;61798;48.048;-1.928;2023-12-20T07:04:06;7.82;;;1.38;;
45049;SDS011;61798;48.048;-1.928;2023-12-20T07:06:13;11.25;;;1.63;;
45049;SDS011;61798;48.048;-1.928;2023-12-20T07:08:23;1.00;;;0.60;;
45049;SDS011;61798;48.048;-1.928;2023-12-20T07:10:33;4.43;;;0.88;;
45049;SDS011;61798;48.048;-1.928;2023-12-20T07:12:39;10.50;;;1.10;;
45049;SDS011;61798;48.048;-1.928;2023-12-20T07:14:45;4.32;;;1.05;;
45049;SDS011;61798;48.048;-1.928;2023-12-20T07:16:51;1.27;;;0.60;;
45049;SDS011;61798;48.048;-1.928;2023-12-20T07:18:57;6.22;;;1.20;;
45049;SDS011;61798;48.048;-1.928;2023-12-20T07:21:03;3.47;;;0.98;;
45049;SDS011;61798;48.048;-1.928;2023-12-20T07:23:09;4.18;;;1.17;;
45049;SDS011;61798;48.048;-1.928;2023-12-20T07:25:15;7.93;;;1.20;;
45049;SDS011;61798;48.048;-1.928;2023-12-20T07:27:21;4.43;;;1.20;;
45049;SDS011;61798;48.048;-1.928;2023-12-20T07:29:26;5.13;;;1.00;;
45049;SDS011;61798;48.048;-1.928;2023-12-20T07:31:32;5.32;;;0.80;;
45049;SDS011;61798;48.048;-1.928;2023-12-20T07:33:40;5.35;;;1.13;;
45049;SDS011;61798;48.048;-1.928;2023-12-20T07:35:47;4.80;;;0.88;;
45049;SDS011;61798;48.048;-1.928;2023-12-20T07:37:54;7.50;;;1.77;;
45049;SDS011;61798;48.048;-1.928;2023-12-20T07:40:00;2.70;;;1.33;;
45049;SDS011;61798;48.048;-1.928;2023-12-20T07:42:06;7.78;;;1.20;;
45049;SDS011;61798;48.048;-1.928;2023-12-20T07:44:12;2.70;;;1.38;;
45049;SDS011;61798;48.048;-1.928;2023-12-20T07:46:18;6.22;;;1.08;;
45049;SDS011;61798;48.048;-1.928;2023-12-20T07:48:28;4.57;;;1.25;;
45049;SDS011;61798;48.048;-1.928;2023-12-20T07:50:35;5.05;;;1.10;;
45049;SDS011;61798;48.048;-1.928;2023-12-20T07:52:42;8.48;;;1.27;;
45049;SDS011;61798;48.048;-1.928;2023-12-20T07:54:47;5.60;;;1.25;;
45049;SDS011;61798;48.048;-1.928;2023-12-20T07:56:53;4.82;;;1.08;;
45049;SDS011;61798;48.048;-1.928;2023-12-20T07:58:59;5.95;;;1.10;;
45049;SDS011;61798;48.048;-1.928;2023-12-20T08:01:05;3.75;;;1.08;;
45049;SDS011;61798;48.048;-1.928;2023-12-20T08:03:11;5.75;;;1.02;;
45049;SDS011;61798;48.048;-1.928;2023-12-20T08:05:16;12.82;;;1.27;;
45049;SDS011;61798;48.048;-1.928;2023-12-20T08:07:22;9.15;;;1.08;;
45049;SDS011;61798;48.048;-1.928;2023-12-20T08:09:28;8.20;;;1.35;;
45049;SDS011;61798;48.048;-1.928;2023-12-20T08:11:34;4.15;;;0.95;;
45049;SDS011;61798;48.048;-1.928;2023-12-20T08:13:41;5.18;;;1.38;;
45049;SDS011;61798;48.048;-1.928;2023-12-20T08:15:46;3.80;;;1.10;;
45049;SDS011;61798;48.048;-1.928;2023-12-20T08:17:52;4.28;;;1.20;;
45049;SDS011;61798;48.048;-1.928;2023-12-20T08:19:59;9.40;;;1.45;;
45049;SDS011;61798;48.048;-1.928;2023-12-20T08:22:06;2.00;;;0.73;;
45049;SDS011;61798;48.048;-1.928;2023-12-20T08:24:12;7.65;;;1.20;;
45049;SDS011;61798;48.048;-1.928;2023-12-20T08:26:21;6.38;;;1.20;;
45049;SDS011;61798;48.048;-1.928;2023-12-20T08:28:29;4.55;;;1.13;;
45049;SDS011;61798;48.048;-1.928;2023-12-20T08:30:36;3.95;;;0.82;;
45049;SDS011;61798;48.048;-1.928;2023-12-20T08:32:42;4.18;;;0.82;;
45049;SDS011;61798;48.048;-1.928;2023-12-20T08:34:49;5.78;;;1.10;;
45049;SDS011;61798;48.048;-1.928;2023-12-20T08:36:55;8.55;;;1.20;;
45049;SDS011;61798;48.048;-1.928;2023-12-20T08:39:00;6.90;;;1.15;;
45049;SDS011;61798;48.048;-1.928;2023-12-20T08:41:07;5.43;;;1.00;;
45049;SDS011;61798;48.048;-1.928;2023-12-20T08:43:14;3.85;;;0.90;;
45049;SDS011;61798;48.048;-1.928;2023-12-20T08:45:20;7.00;;;1.13;;
45049;SDS011;61798;48.048;-1.928;2023-12-20T08:47:25;3.22;;;0.93;;
45049;SDS011;61798;48.048;-1.928;2023-12-20T08:49:33;10.30;;;1.75;;
45049;SDS011;61798;48.048;-1.928;2023-12-20T08:51:38;2.63;;;0.98;;
45049;SDS011;61798;48.048;-1.928;2023-12-20T08:53:46;7.30;;;0.93;;
45049;SDS011;61798;48.048;-1.928;2023-12-20T08:55:53;12.07;;;0.95;;
45049;SDS011;61798;48.048;-1.928;2023-12-20T08:57:58;6.85;;;1.10;;
45049;SDS011;61798;48.048;-1.928;2023-12-20T09:00:05;9.60;;;1.50;;
45049;SDS011;61798;48.048;-1.928;2023-12-20T09:02:15;11.88;;;1.35;;
45049;SDS011;61798;48.048;-1.928;2023-12-20T09:04:22;7.32;;;1.75;;
45049;SDS011;61798;48.048;-1.928;2023-12-20T09:06:28;5.35;;;1.20;;
45049;SDS011;61798;48.048;-1.928;2023-12-20T09:08:35;9.95;;;1.90;;
45049;SDS011;61798;48.048;-1.928;2023-12-20T09:10:41;7.18;;;1.10;;
45049;SDS011;61798;48.048;-1.928;2023-12-20T09:12:50;7.22;;;1.55;;
45049;SDS011;61798;48.048;-1.928;2023-12-20T09:15:00;11.05;;;1.17;;
45049;SDS011;61798;48.048;-1.928;2023-12-20T09:17:09;7.95;;;1.10;;
45049;SDS011;61798;48.048;-1.928;2023-12-20T09:19:18;12.95;;;1.50;;
45049;SDS011;61798;48.048;-1.928;2023-12-20T09:21:24;4.00;;;0.95;;
45049;SDS011;61798;48.048;-1.928;2023-12-20T09:23:31;5.15;;;1.05;;
45049;SDS011;61798;48.048;-1.928;2023-12-20T09:25:38;6.20;;;1.45;;
45049;SDS011;61798;48.048;-1.928;2023-12-20T09:27:44;9.15;;;1.67;;
45049;SDS011;61798;48.048;-1.928;2023-12-20T09:29:50;9.13;;;1.40;;
45049;SDS011;61798;48.048;-1.928;2023-12-20T09:31:56;3.28;;;1.23;;
45049;SDS011;61798;48.048;-1.928;2023-12-20T09:34:02;5.55;;;1.02;;
45049;SDS011;61798;48.048;-1.928;2023-12-20T09:36:08;4.68;;;1.17;;
45049;SDS011;61798;48.048;-1.928;2023-12-20T09:38:14;5.30;;;1.55;;
45049;SDS011;61798;48.048;-1.928;2023-12-20T09:40:21;9.88;;;1.20;;
45049;SDS011;61798;48.048;-1.928;2023-12-20T09:44:45;6.40;;;1.00;;
45049;SDS011;61798;48.048;-1.928;2023-12-20T09:46:52;5.85;;;1.55;;
45049;SDS011;61798;48.048;-1.928;2023-12-20T09:49:00;9.60;;;1.33;;
45049;SDS011;61798;48.048;-1.928;2023-12-20T09:51:06;13.45;;;1.20;;
45049;SDS011;61798;48.048;-1.928;2023-12-20T09:53:14;11.13;;;1.27;;
45049;SDS011;61798;48.048;-1.928;2023-12-20T09:55:22;9.68;;;1.63;;
45049;SDS011;61798;48.048;-1.928;2023-12-20T09:57:28;10.23;;;1.55;;
45049;SDS011;61798;48.048;-1.928;2023-12-20T09:59:34;8.52;;;1.55;;
45049;SDS011;61798;48.048;-1.928;2023-12-20T10:01:40;6.97;;;1.02;;
45049;SDS011;61798;48.048;-1.928;2023-12-20T10:03:47;15.18;;;1.77;;
45049;SDS011;61798;48.048;-1.928;2023-12-20T10:05:54;14.52;;;1.67;;
45049;SDS011;61798;48.048;-1.928;2023-12-20T10:08:02;5.72;;;1.38;;
45049;SDS011;61798;48.048;-1.928;2023-12-20T10:10:08;3.88;;;1.33;;
45049;SDS011;61798;48.048;-1.928;2023-12-20T10:12:15;3.78;;;1.15;;
45049;SDS011;61798;48.048;-1.928;2023-12-20T10:14:21;7.40;;;1.70;;
45049;SDS011;61798;48.048;-1.928;2023-12-20T10:16:29;5.82;;;1.67;;
45049;SDS011;61798;48.048;-1.928;2023-12-20T10:18:35;13.63;;;1.90;;
45049;SDS011;61798;48.048;-1.928;2023-12-20T10:20:41;6.50;;;1.30;;
45049;SDS011;61798;48.048;-1.928;2023-12-20T10:22:48;6.95;;;1.42;;
45049;SDS011;61798;48.048;-1.928;2023-12-20T10:24:56;11.52;;;1.35;;
45049;SDS011;61798;48.048;-1.928;2023-12-20T10:27:02;3.78;;;1.05;;
45049;SDS011;61798;48.048;-1.928;2023-12-20T10:29:12;3.67;;;1.02;;
45049;SDS011;61798;48.048;-1.928;2023-12-20T10:31:33;8.45;;;1.40;;
45049;SDS011;61798;48.048;-1.928;2023-12-20T10:33:40;5.40;;;1.02;;
45049;SDS011;61798;48.048;-1.928;2023-12-20T10:35:46;6.30;;;1.13;;
45049;SDS011;61798;48.048;-1.928;2023-12-20T10:37:55;19.17;;;3.00;;
45049;SDS011;61798;48.048;-1.928;2023-12-20T10:40:02;6.93;;;1.77;;
45049;SDS011;61798;48.048;-1.928;2023-12-20T10:42:10;6.57;;;1.52;;
45049;SDS011;61798;48.048;-1.928;2023-12-20T10:44:17;8.52;;;1.58;;
45049;SDS011;61798;48.048;-1.928;2023-12-20T10:46:23;5.57;;;1.25;;
45049;SDS011;61798;48.048;-1.928;2023-12-20T10:48:31;10.57;;;1.20;;
45049;SDS011;61798;48.048;-1.928;2023-12-20T10:50:38;9.05;;;1.20;;
45049;SDS011;61798;48.048;-1.928;2023-12-20T10:52:46;16.45;;;2.13;;
45049;SDS011;61798;48.048;-1.928;2023-12-20T10:54:53;6.55;;;1.38;;
45049;SDS011;61798;48.048;-1.928;2023-12-20T10:56:59;9.05;;;1.30;;
45049;SDS011;61798;48.048;-1.928;2023-12-20T10:59:05;8.13;;;1.35;;
45049;SDS011;61798;48.048;-1.928;2023-12-20T11:01:16;10.10;;;1.75;;
45049;SDS011;61798;48.048;-1.928;2023-12-20T11:03:23;7.57;;;1.30;;
45049;SDS011;61798;48.048;-1.928;2023-12-20T11:05:42;7.70;;;1.27;;
45049;SDS011;61798;48.048;-1.928;2023-12-20T11:07:58;12.70;;;1.95;;
45049;SDS011;61798;48.048;-1.928;2023-12-20T11:10:18;8.40;;;1.02;;
45049;SDS011;61798;48.048;-1.928;2023-12-20T11:14:52;6.93;;;1.75;;
45049;SDS011;61798;48.048;-1.928;2023-12-20T11:17:08;4.97;;;1.33;;
45049;SDS011;61798;48.048;-1.928;2023-12-20T11:19:14;9.40;;;1.40;;
45049;SDS011;61798;48.048;-1.928;2023-12-20T11:21:20;5.03;;;1.33;;
45049;SDS011;61798;48.048;-1.928;2023-12-20T11:23:26;9.07;;;1.10;;
45049;SDS011;61798;48.048;-1.928;2023-12-20T11:28:09;10.75;;;2.35;;
45049;SDS011;61798;48.048;-1.928;2023-12-20T11:30:15;7.28;;;1.65;;
45049;SDS011;61798;48.048;-1.928;2023-12-20T11:34:33;1.98;;;1.00;;
45049;SDS011;61798;48.048;-1.928;2023-12-20T11:36:41;9.32;;;1.48;;
45049;SDS011;61798;48.048;-1.928;2023-12-20T11:38:56;10.32;;;1.73;;
45049;SDS011;61798;48.048;-1.928;2023-12-20T11:41:04;6.45;;;1.38;;
45049;SDS011;61798;48.048;-1.928;2023-12-20T11:43:11;10.25;;;1.73;;
45049;SDS011;61798;48.048;-1.928;2023-12-20T11:45:17;5.40;;;1.17;;
45049;SDS011;61798;48.048;-1.928;2023-12-20T11:47:29;12.18;;;1.50;;
45049;SDS011;61798;48.048;-1.928;2023-12-20T11:49:36;6.22;;;1.67;;
45049;SDS011;61798;48.048;-1.928;2023-12-20T11:51:42;6.57;;;1.73;;
45049;SDS011;61798;48.048;-1.928;2023-12-20T11:53:52;6.53;;;1.73;;
45049;SDS011;61798;48.048;-1.928;2023-12-20T11:55:58;7.63;;;1.52;;
45049;SDS011;61798;48.048;-1.928;2023-12-20T11:58:04;6.85;;;1.40;;
45049;SDS011;61798;48.048;-1.928;2023-12-20T12:00:10;4.05;;;1.02;;
45049;SDS011;61798;48.048;-1.928;2023-12-20T12:02:16;4.80;;;1.17;;
45049;SDS011;61798;48.048;-1.928;2023-12-20T12:04:22;7.22;;;1.42;;
45049;SDS011;61798;48.048;-1.928;2023-12-20T12:06:28;8.57;;;1.10;;
45049;SDS011;61798;48.048;-1.928;2023-12-20T12:08:35;10.23;;;1.42;;
45049;SDS011;61798;48.048;-1.928;2023-12-20T12:10:42;9.02;;;1.70;;
45049;SDS011;61798;48.048;-1.928;2023-12-20T12:12:49;8.93;;;1.38;;
45049;SDS011;61798;48.048;-1.928;2023-12-20T12:14:55;7.63;;;1.40;;
45049;SDS011;61798;48.048;-1.928;2023-12-20T12:17:03;6.60;;;1.60;;
45049;SDS011;61798;48.048;-1.928;2023-12-20T12:19:19;5.57;;;1.63;;
45049;SDS011;61798;48.048;-1.928;2023-12-20T12:21:26;7.05;;;1.58;;
45049;SDS011;61798;48.048;-1.928;2023-12-20T12:23:33;3.47;;;1.08;;
45049;SDS011;61798;48.048;-1.928;2023-12-20T12:25:40;9.30;;;1.42;;
45049;SDS011;61798;48.048;-1.928;2023-12-20T12:27:48;10.43;;;1.33;;
45049;SDS011;61798;48.048;-1.928;2023-12-20T12:30:03;9.50;;;1.38;;
45049;SDS011;61798;48.048;-1.928;2023-12-20T12:32:12;7.88;;;1.35;;
45049;SDS011;61798;48.048;-1.928;2023-12-20T12:34:19;11.52;;;1.67;;
45049;SDS011;61798;48.048;-1.928;2023-12-20T12:36:26;10.05;;;1.25;;
45049;SDS011;61798;48.048;-1.928;2023-12-20T12:38:34;13.32;;;1.85;;
45049;SDS011;61798;48.048;-1.928;2023-12-20T12:40:40;8.57;;;1.08;;
45049;SDS011;61798;48.048;-1.928;2023-12-20T12:42:49;9.93;;;1.83;;